sensor_id;sensor_type;location;lat;lon;timestamp;P1;durP1;ratioP1;P2;durP2;ratioP2
7359;SDS011;3720;48.274;7.796;2023-12-22T00:00:37;4.57;;;1.30;;
7359;SDS011;3720;48.274;7.796;2023-12-22T00:03:09;6.18;;;1.42;;
7359;SDS011;3720;48.274;7.796;2023-12-22T00:05:41;6.00;;;1.25;;
7359;SDS011;3720;48.274;7.796;2023-12-22T00:08:13;6.47;;;1.20;;
7359;SDS011;3720;48.274;7.796;2023-12-22T00:10:45;5.85;;;1.60;;
7359;SDS011;3720;48.274;7.796;2023-12-22T00:13:17;6.63;;;1.67;;
7359;SDS011;3720;48.274;7.796;2023-12-22T00:15:50;5.05;;;1.17;;
7359;SDS011;3720;48.274;7.796;2023-12-22T00:18:22;6.30;;;1.75;;
7359;SDS011;3720;48.274;7.796;2023-12-22T00:20:54;5.70;;;1.35;;
7359;SDS011;3720;48.274;7.796;2023-12-22T00:23:25;5.13;;;1.42;;
7359;SDS011;3720;48.274;7.796;2023-12-22T00:25:57;5.50;;;1.35;;
7359;SDS011;3720;48.274;7.796;2023-12-22T00:28:29;5.95;;;1.50;;
7359;SDS011;3720;48.274;7.796;2023-12-22T00:31:03;4.90;;;1.30;;
7359;SDS011;3720;48.274;7.796;2023-12-22T00:33:35;6.82;;;1.70;;
7359;SDS011;3720;48.274;7.796;2023-12-22T00:36:07;6.60;;;1.50;;
7359;SDS011;3720;48.274;7.796;2023-12-22T00:38:39;7.60;;;1.42;;
7359;SDS011;3720;48.274;7.796;2023-12-22T00:41:11;7.07;;;1.42;;
7359;SDS011;3720;48.274;7.796;2023-12-22T00:43:43;4.78;;;1.35;;
7359;SDS011;3720;48.274;7.796;2023-12-22T00:46:16;4.93;;;1.52;;
7359;SDS011;3720;48.274;7.796;2023-12-22T00:48:49;6.68;;;1.45;;
7359;SDS011;3720;48.274;7.796;2023-12-22T00:51:21;8.68;;;1.60;;
7359;SDS011;3720;48.274;7.796;2023-12-22T00:53:53;6.38;;;1.38;;
7359;SDS011;3720;48.274;7.796;2023-12-22T00:56:25;5.28;;;1.30;;
7359;SDS011;3720;48.274;7.796;2023-12-22T00:58:57;7.00;;;1.50;;
7359;SDS011;3720;48.274;7.796;2023-12-22T01:01:30;8.57;;;1.92;;
7359;SDS011;3720;48.274;7.796;2023-12-22T01:04:02;8.18;;;1.60;;
7359;SDS011;3720;48.274;7.796;2023-12-22T01:06:36;4.88;;;1.30;;
7359;SDS011;3720;48.274;7.796;2023-12-22T01:09:09;6.35;;;1.27;;
7359;SDS011;3720;48.274;7.796;2023-12-22T01:11:40;7.05;;;1.38;;
7359;SDS011;3720;48.274;7.796;2023-12-22T01:14:12;6.90;;;1.83;;
7359;SDS011;3720;48.274;7.796;2023-12-22T01:16:46;10.85;;;1.60;;
7359;SDS011;3720;48.274;7.796;2023-12-22T01:19:18;6.60;;;1.75;;
7359;SDS011;3720;48.274;7.796;2023-12-22T01:21:49;6.20;;;1.45;;
7359;SDS011;3720;48.274;7.796;2023-12-22T01:24:21;6.43;;;1.55;;
7359;SDS011;3720;48.274;7.796;2023-12-22T01:26:53;6.50;;;1.92;;
7359;SDS011;3720;48.274;7.796;2023-12-22T01:29:25;6.03;;;1.40;;
7359;SDS011;3720;48.274;7.796;2023-12-22T01:31:58;6.72;;;1.45;;
7359;SDS011;3720;48.274;7.796;2023-12-22T01:34:30;6.13;;;1.38;;
7359;SDS011;3720;48.274;7.796;2023-12-22T01:37:02;10.55;;;1.45;;
7359;SDS011;3720;48.274;7.796;2023-12-22T01:39:34;6.20;;;1.60;;
7359;SDS011;3720;48.274;7.796;2023-12-22T01:42:06;8.23;;;1.50;;
7359;SDS011;3720;48.274;7.796;2023-12-22T01:44:37;4.45;;;1.20;;
7359;SDS011;3720;48.274;7.796;2023-12-22T01:47:11;6.45;;;1.30;;
7359;SDS011;3720;48.274;7.796;2023-12-22T01:49:42;5.97;;;1.48;;
7359;SDS011;3720;48.274;7.796;2023-12-22T01:52:14;7.40;;;1.45;;
7359;SDS011;3720;48.274;7.796;2023-12-22T01:54:47;6.07;;;1.27;;
7359;SDS011;3720;48.274;7.796;2023-12-22T01:57:20;3.78;;;1.10;;
7359;SDS011;3720;48.274;7.796;2023-12-22T01:59:52;7.05;;;1.55;;
7359;SDS011;3720;48.274;7.796;2023-12-22T02:02:25;6.32;;;1.30;;
7359;SDS011;3720;48.274;7.796;2023-12-22T02:04:58;6.28;;;1.20;;
7359;SDS011;3720;48.274;7.796;2023-12-22T02:07:30;5.30;;;1.25;;
7359;SDS011;3720;48.274;7.796;2023-12-22T02:10:03;5.60;;;1.40;;
7359;SDS011;3720;48.274;7.796;2023-12-22T02:12:35;4.22;;;1.10;;
7359;SDS011;3720;48.274;7.796;2023-12-22T02:15:08;5.22;;;1.20;;
7359;SDS011;3720;48.274;7.796;2023-12-22T02:17:45;5.00;;;1.30;;
7359;SDS011;3720;48.274;7.796;2023-12-22T02:20:20;5.82;;;1.30;;
7359;SDS011;3720;48.274;7.796;2023-12-22T02:22:54;7.03;;;1.50;;
7359;SDS011;3720;48.274;7.796;2023-12-22T02:25:25;6.10;;;1.38;;
7359;SDS011;3720;48.274;7.796;2023-12-22T02:27:58;8.35;;;1.55;;
7359;SDS011;3720;48.274;7.796;2023-12-22T02:30:39;6.60;;;1.42;;
7359;SDS011;3720;48.274;7.796;2023-12-22T02:35:55;6.15;;;1.48;;
7359;SDS011;3720;48.274;7.796;2023-12-22T02:38:34;8.50;;;1.63;;
7359;SDS011;3720;48.274;7.796;2023-12-22T02:41:07;8.20;;;1.40;;
7359;SDS011;3720;48.274;7.796;2023-12-22T02:43:39;12.82;;;1.98;;
7359;SDS011;3720;48.274;7.796;2023-12-22T02:46:13;8.43;;;1.52;;
7359;SDS011;3720;48.274;7.796;2023-12-22T02:48:45;6.85;;;1.52;;
7359;SDS011;3720;48.274;7.796;2023-12-22T02:51:17;10.10;;;2.20;;
7359;SDS011;3720;48.274;7.796;2023-12-22T02:53:50;7.68;;;1.40;;
7359;SDS011;3720;48.274;7.796;2023-12-22T02:56:22;10.75;;;2.10;;
7359;SDS011;3720;48.274;7.796;2023-12-22T02:58:54;9.98;;;1.85;;
7359;SDS011;3720;48.274;7.796;2023-12-22T03:01:26;11.25;;;2.13;;
7359;SDS011;3720;48.274;7.796;2023-12-22T03:03:58;8.82;;;1.98;;
7359;SDS011;3720;48.274;7.796;2023-12-22T03:06:29;8.85;;;1.90;;
7359;SDS011;3720;48.274;7.796;2023-12-22T03:09:02;12.63;;;2.08;;
7359;SDS011;3720;48.274;7.796;2023-12-22T03:11:35;10.02;;;2.20;;
7359;SDS011;3720;48.274;7.796;2023-12-22T03:14:06;9.88;;;2.05;;
7359;SDS011;3720;48.274;7.796;2023-12-22T03:16:39;8.82;;;2.03;;
7359;SDS011;3720;48.274;7.796;2023-12-22T03:19:11;11.48;;;1.83;;
7359;SDS011;3720;48.274;7.796;2023-12-22T03:21:43;6.57;;;1.63;;
7359;SDS011;3720;48.274;7.796;2023-12-22T03:24:16;10.05;;;2.15;;
7359;SDS011;3720;48.274;7.796;2023-12-22T03:26:49;8.85;;;2.00;;
7359;SDS011;3720;48.274;7.796;2023-12-22T03:29:21;14.57;;;2.22;;
7359;SDS011;3720;48.274;7.796;2023-12-22T03:31:53;10.05;;;2.50;;
7359;SDS011;3720;48.274;7.796;2023-12-22T03:34:25;12.40;;;2.30;;
7359;SDS011;3720;48.274;7.796;2023-12-22T03:36:56;13.38;;;2.80;;
7359;SDS011;3720;48.274;7.796;2023-12-22T03:39:30;12.52;;;2.78;;
7359;SDS011;3720;48.274;7.796;2023-12-22T03:42:01;12.25;;;2.72;;
7359;SDS011;3720;48.274;7.796;2023-12-22T03:44:33;10.02;;;2.15;;
7359;SDS011;3720;48.274;7.796;2023-12-22T03:47:05;13.95;;;2.30;;
7359;SDS011;3720;48.274;7.796;2023-12-22T03:49:37;11.45;;;2.33;;
7359;SDS011;3720;48.274;7.796;2023-12-22T03:52:09;12.27;;;2.28;;
7359;SDS011;3720;48.274;7.796;2023-12-22T03:54:43;10.35;;;2.45;;
7359;SDS011;3720;48.274;7.796;2023-12-22T03:57:14;9.75;;;2.22;;
7359;SDS011;3720;48.274;7.796;2023-12-22T03:59:46;10.98;;;2.15;;
7359;SDS011;3720;48.274;7.796;2023-12-22T04:02:18;11.73;;;2.28;;
7359;SDS011;3720;48.274;7.796;2023-12-22T04:04:50;12.60;;;2.50;;
7359;SDS011;3720;48.274;7.796;2023-12-22T04:07:22;12.45;;;2.20;;
7359;SDS011;3720;48.274;7.796;2023-12-22T04:09:55;11.82;;;2.42;;
7359;SDS011;3720;48.274;7.796;2023-12-22T04:12:27;11.50;;;2.17;;
7359;SDS011;3720;48.274;7.796;2023-12-22T04:14:58;11.63;;;2.30;;
7359;SDS011;3720;48.274;7.796;2023-12-22T04:17:30;13.63;;;2.40;;
7359;SDS011;3720;48.274;7.796;2023-12-22T04:20:02;12.82;;;2.28;;
7359;SDS011;3720;48.274;7.796;2023-12-22T04:22:35;14.65;;;2.60;;
7359;SDS011;3720;48.274;7.796;2023-12-22T04:25:08;14.60;;;2.80;;
7359;SDS011;3720;48.274;7.796;2023-12-22T04:27:40;12.05;;;2.50;;
7359;SDS011;3720;48.274;7.796;2023-12-22T04:30:12;11.82;;;2.25;;
7359;SDS011;3720;48.274;7.796;2023-12-22T04:32:44;11.80;;;2.33;;
7359;SDS011;3720;48.274;7.796;2023-12-22T04:35:16;10.68;;;2.53;;
7359;SDS011;3720;48.274;7.796;2023-12-22T04:37:48;11.60;;;2.50;;
7359;SDS011;3720;48.274;7.796;2023-12-22T04:40:21;10.35;;;2.10;;
7359;SDS011;3720;48.274;7.796;2023-12-22T04:42:53;12.25;;;2.08;;
7359;SDS011;3720;48.274;7.796;2023-12-22T04:45:25;10.50;;;2.60;;
7359;SDS011;3720;48.274;7.796;2023-12-22T04:47:56;14.07;;;2.35;;
7359;SDS011;3720;48.274;7.796;2023-12-22T04:50:28;10.38;;;2.15;;
7359;SDS011;3720;48.274;7.796;2023-12-22T04:53:00;14.18;;;2.72;;
7359;SDS011;3720;48.274;7.796;2023-12-22T04:55:33;9.25;;;2.38;;
7359;SDS011;3720;48.274;7.796;2023-12-22T04:58:05;16.13;;;2.60;;
7359;SDS011;3720;48.274;7.796;2023-12-22T05:00:37;14.35;;;2.20;;
7359;SDS011;3720;48.274;7.796;2023-12-22T05:03:09;9.88;;;2.40;;
7359;SDS011;3720;48.274;7.796;2023-12-22T05:05:40;15.10;;;2.40;;
7359;SDS011;3720;48.274;7.796;2023-12-22T05:08:12;14.57;;;2.35;;
7359;SDS011;3720;48.274;7.796;2023-12-22T05:10:47;10.65;;;2.22;;
7359;SDS011;3720;48.274;7.796;2023-12-22T05:13:19;11.45;;;2.55;;
7359;SDS011;3720;48.274;7.796;2023-12-22T05:15:51;11.88;;;2.75;;
7359;SDS011;3720;48.274;7.796;2023-12-22T05:18:23;11.73;;;2.10;;
7359;SDS011;3720;48.274;7.796;2023-12-22T05:20:55;14.65;;;2.92;;
7359;SDS011;3720;48.274;7.796;2023-12-22T05:23:26;12.68;;;2.53;;
7359;SDS011;3720;48.274;7.796;2023-12-22T05:26:00;12.80;;;2.60;;
7359;SDS011;3720;48.274;7.796;2023-12-22T05:28:32;11.73;;;2.17;;
7359;SDS011;3720;48.274;7.796;2023-12-22T05:31:03;14.68;;;2.50;;
7359;SDS011;3720;48.274;7.796;2023-12-22T05:33:35;12.80;;;2.67;;
7359;SDS011;3720;48.274;7.796;2023-12-22T05:36:08;11.68;;;2.33;;
7359;SDS011;3720;48.274;7.796;2023-12-22T05:38:40;12.20;;;2.03;;
7359;SDS011;3720;48.274;7.796;2023-12-22T05:41:13;12.27;;;2.45;;
7359;SDS011;3720;48.274;7.796;2023-12-22T05:43:45;11.48;;;2.10;;
7359;SDS011;3720;48.274;7.796;2023-12-22T05:46:16;11.30;;;2.53;;
7359;SDS011;3720;48.274;7.796;2023-12-22T05:48:48;14.07;;;2.50;;
7359;SDS011;3720;48.274;7.796;2023-12-22T05:51:20;13.70;;;1.95;;
7359;SDS011;3720;48.274;7.796;2023-12-22T05:53:52;11.70;;;2.03;;
7359;SDS011;3720;48.274;7.796;2023-12-22T05:56:26;13.88;;;2.47;;
7359;SDS011;3720;48.274;7.796;2023-12-22T05:58:57;11.27;;;2.25;;
7359;SDS011;3720;48.274;7.796;2023-12-22T06:01:29;10.50;;;2.53;;
7359;SDS011;3720;48.274;7.796;2023-12-22T06:04:01;13.23;;;2.75;;
7359;SDS011;3720;48.274;7.796;2023-12-22T06:06:33;10.85;;;2.22;;
7359;SDS011;3720;48.274;7.796;2023-12-22T06:09:05;10.70;;;1.98;;
7359;SDS011;3720;48.274;7.796;2023-12-22T06:11:38;9.48;;;1.90;;
7359;SDS011;3720;48.274;7.796;2023-12-22T06:14:10;13.20;;;2.47;;
7359;SDS011;3720;48.274;7.796;2023-12-22T06:16:42;11.88;;;1.98;;
7359;SDS011;3720;48.274;7.796;2023-12-22T06:19:14;11.02;;;2.13;;
7359;SDS011;3720;48.274;7.796;2023-12-22T06:21:46;8.10;;;2.03;;
7359;SDS011;3720;48.274;7.796;2023-12-22T06:24:18;12.48;;;2.13;;
7359;SDS011;3720;48.274;7.796;2023-12-22T06:26:51;10.13;;;2.38;;
7359;SDS011;3720;48.274;7.796;2023-12-22T06:29:23;11.55;;;1.88;;
7359;SDS011;3720;48.274;7.796;2023-12-22T06:31:55;14.07;;;2.13;;
7359;SDS011;3720;48.274;7.796;2023-12-22T06:34:27;10.50;;;1.92;;
7359;SDS011;3720;48.274;7.796;2023-12-22T06:36:59;9.27;;;2.13;;
7359;SDS011;3720;48.274;7.796;2023-12-22T06:39:30;10.13;;;2.22;;
7359;SDS011;3720;48.274;7.796;2023-12-22T06:42:04;12.63;;;2.15;;
7359;SDS011;3720;48.274;7.796;2023-12-22T06:44:41;12.13;;;2.88;;
7359;SDS011;3720;48.274;7.796;2023-12-22T06:47:13;7.47;;;1.75;;
7359;SDS011;3720;48.274;7.796;2023-12-22T06:49:45;11.60;;;2.20;;
7359;SDS011;3720;48.274;7.796;2023-12-22T06:52:17;13.30;;;1.98;;
7359;SDS011;3720;48.274;7.796;2023-12-22T06:54:49;12.40;;;2.15;;
7359;SDS011;3720;48.274;7.796;2023-12-22T06:57:22;8.13;;;1.88;;
7359;SDS011;3720;48.274;7.796;2023-12-22T06:59:54;10.85;;;2.10;;
7359;SDS011;3720;48.274;7.796;2023-12-22T07:02:25;7.70;;;1.83;;
7359;SDS011;3720;48.274;7.796;2023-12-22T07:05:00;10.65;;;2.00;;
7359;SDS011;3720;48.274;7.796;2023-12-22T07:07:37;13.52;;;2.17;;
7359;SDS011;3720;48.274;7.796;2023-12-22T07:10:09;9.70;;;2.25;;
7359;SDS011;3720;48.274;7.796;2023-12-22T07:12:43;13.02;;;1.83;;
7359;SDS011;3720;48.274;7.796;2023-12-22T07:15:15;13.13;;;2.35;;
7359;SDS011;3720;48.274;7.796;2023-12-22T07:17:47;9.15;;;1.95;;
7359;SDS011;3720;48.274;7.796;2023-12-22T07:20:19;11.93;;;2.10;;
7359;SDS011;3720;48.274;7.796;2023-12-22T07:22:51;7.72;;;1.88;;
7359;SDS011;3720;48.274;7.796;2023-12-22T07:25:24;10.63;;;2.05;;
7359;SDS011;3720;48.274;7.796;2023-12-22T07:27:57;10.57;;;2.30;;
7359;SDS011;3720;48.274;7.796;2023-12-22T07:30:29;9.93;;;1.92;;
7359;SDS011;3720;48.274;7.796;2023-12-22T07:33:00;9.93;;;2.17;;
7359;SDS011;3720;48.274;7.796;2023-12-22T07:35:32;11.07;;;2.20;;
7359;SDS011;3720;48.274;7.796;2023-12-22T07:38:04;19.73;;;2.70;;
7359;SDS011;3720;48.274;7.796;2023-12-22T07:40:36;15.23;;;2.90;;
7359;SDS011;3720;48.274;7.796;2023-12-22T07:43:09;14.05;;;2.33;;
7359;SDS011;3720;48.274;7.796;2023-12-22T07:45:41;13.82;;;2.33;;
7359;SDS011;3720;48.274;7.796;2023-12-22T07:48:13;9.10;;;2.03;;
7359;SDS011;3720;48.274;7.796;2023-12-22T07:50:45;9.98;;;2.15;;
7359;SDS011;3720;48.274;7.796;2023-12-22T07:53:16;11.50;;;2.08;;
7359;SDS011;3720;48.274;7.796;2023-12-22T07:55:49;10.95;;;2.30;;
7359;SDS011;3720;48.274;7.796;2023-12-22T07:58:22;12.10;;;2.40;;
7359;SDS011;3720;48.274;7.796;2023-12-22T08:00:54;16.60;;;2.47;;
7359;SDS011;3720;48.274;7.796;2023-12-22T08:03:25;10.23;;;2.05;;
7359;SDS011;3720;48.274;7.796;2023-12-22T08:05:58;8.25;;;1.85;;
7359;SDS011;3720;48.274;7.796;2023-12-22T08:08:29;8.80;;;1.90;;
7359;SDS011;3720;48.274;7.796;2023-12-22T08:11:03;8.27;;;2.17;;
7359;SDS011;3720;48.274;7.796;2023-12-22T08:13:36;10.15;;;1.98;;
7359;SDS011;3720;48.274;7.796;2023-12-22T08:16:08;8.82;;;2.03;;
7359;SDS011;3720;48.274;7.796;2023-12-22T08:18:40;13.73;;;1.90;;
7359;SDS011;3720;48.274;7.796;2023-12-22T08:21:13;8.70;;;1.70;;
7359;SDS011;3720;48.274;7.796;2023-12-22T08:23:45;8.38;;;1.75;;
7359;SDS011;3720;48.274;7.796;2023-12-22T08:26:17;8.27;;;1.70;;
7359;SDS011;3720;48.274;7.796;2023-12-22T08:28:51;6.88;;;1.55;;
7359;SDS011;3720;48.274;7.796;2023-12-22T08:31:23;8.23;;;1.80;;
7359;SDS011;3720;48.274;7.796;2023-12-22T08:33:55;6.30;;;1.60;;
7359;SDS011;3720;48.274;7.796;2023-12-22T08:36:27;7.25;;;1.60;;
7359;SDS011;3720;48.274;7.796;2023-12-22T08:38:59;8.10;;;1.67;;
7359;SDS011;3720;48.274;7.796;2023-12-22T08:41:30;8.65;;;1.98;;
7359;SDS011;3720;48.274;7.796;2023-12-22T08:44:07;8.63;;;1.60;;
7359;SDS011;3720;48.274;7.796;2023-12-22T08:46:40;8.98;;;1.98;;
7359;SDS011;3720;48.274;7.796;2023-12-22T08:49:12;9.18;;;1.95;;
7359;SDS011;3720;48.274;7.796;2023-12-22T08:51:44;9.90;;;1.95;;
7359;SDS011;3720;48.274;7.796;2023-12-22T08:54:15;12.60;;;2.20;;
7359;SDS011;3720;48.274;7.796;2023-12-22T08:56:47;12.07;;;2.10;;
7359;SDS011;3720;48.274;7.796;2023-12-22T08:59:21;11.13;;;2.17;;
7359;SDS011;3720;48.274;7.796;2023-12-22T09:01:52;10.13;;;2.10;;
7359;SDS011;3720;48.274;7.796;2023-12-22T09:04:25;12.80;;;2.60;;
7359;SDS011;3720;48.274;7.796;2023-12-22T09:06:57;8.80;;;2.20;;
7359;SDS011;3720;48.274;7.796;2023-12-22T09:09:28;12.88;;;2.33;;
7359;SDS011;3720;48.274;7.796;2023-12-22T09:12:00;9.98;;;2.40;;
7359;SDS011;3720;48.274;7.796;2023-12-22T09:14:33;10.35;;;2.30;;
7359;SDS011;3720;48.274;7.796;2023-12-22T09:17:05;11.75;;;2.50;;
7359;SDS011;3720;48.274;7.796;2023-12-22T09:19:37;8.95;;;2.28;;
7359;SDS011;3720;48.274;7.796;2023-12-22T09:22:09;12.70;;;2.40;;
7359;SDS011;3720;48.274;7.796;2023-12-22T09:24:42;13.95;;;2.90;;
7359;SDS011;3720;48.274;7.796;2023-12-22T09:27:14;11.55;;;2.42;;
7359;SDS011;3720;48.274;7.796;2023-12-22T09:29:47;10.82;;;2.55;;
7359;SDS011;3720;48.274;7.796;2023-12-22T09:32:19;8.80;;;2.25;;
7359;SDS011;3720;48.274;7.796;2023-12-22T09:34:51;12.20;;;2.30;;
7359;SDS011;3720;48.274;7.796;2023-12-22T09:37:22;11.30;;;2.20;;
7359;SDS011;3720;48.274;7.796;2023-12-22T09:39:54;11.45;;;2.00;;
7359;SDS011;3720;48.274;7.796;2023-12-22T09:42:26;8.48;;;2.20;;
7359;SDS011;3720;48.274;7.796;2023-12-22T09:44:59;11.45;;;2.03;;
7359;SDS011;3720;48.274;7.796;2023-12-22T09:47:41;9.90;;;1.90;;
7359;SDS011;3720;48.274;7.796;2023-12-22T09:50:30;9.70;;;2.38;;
7359;SDS011;3720;48.274;7.796;2023-12-22T09:53:02;8.50;;;1.92;;
7359;SDS011;3720;48.274;7.796;2023-12-22T09:55:35;11.27;;;2.55;;
7359;SDS011;3720;48.274;7.796;2023-12-22T09:58:07;7.90;;;2.10;;
7359;SDS011;3720;48.274;7.796;2023-12-22T10:00:42;7.15;;;2.13;;
7359;SDS011;3720;48.274;7.796;2023-12-22T10:03:14;10.05;;;2.20;;
7359;SDS011;3720;48.274;7.796;2023-12-22T10:05:47;8.95;;;1.65;;
7359;SDS011;3720;48.274;7.796;2023-12-22T10:08:19;12.13;;;2.47;;
7359;SDS011;3720;48.274;7.796;2023-12-22T10:10:52;10.25;;;2.10;;
7359;SDS011;3720;48.274;7.796;2023-12-22T10:13:24;10.27;;;2.22;;
7359;SDS011;3720;48.274;7.796;2023-12-22T10:15:59;11.48;;;2.42;;
7359;SDS011;3720;48.274;7.796;2023-12-22T10:18:32;12.32;;;2.67;;
7359;SDS011;3720;48.274;7.796;2023-12-22T10:21:04;14.52;;;2.70;;
7359;SDS011;3720;48.274;7.796;2023-12-22T10:23:36;11.63;;;2.45;;
7359;SDS011;3720;48.274;7.796;2023-12-22T10:26:10;12.25;;;2.47;;
7359;SDS011;3720;48.274;7.796;2023-12-22T10:28:42;16.20;;;2.70;;
7359;SDS011;3720;48.274;7.796;2023-12-22T10:31:15;12.02;;;2.53;;
7359;SDS011;3720;48.274;7.796;2023-12-22T10:33:48;13.95;;;2.75;;
7359;SDS011;3720;48.274;7.796;2023-12-22T10:36:20;12.57;;;2.80;;
7359;SDS011;3720;48.274;7.796;2023-12-22T10:38:52;13.73;;;2.60;;
7359;SDS011;3720;48.274;7.796;2023-12-22T10:41:24;10.63;;;2.35;;
7359;SDS011;3720;48.274;7.796;2023-12-22T10:43:56;11.40;;;2.55;;
7359;SDS011;3720;48.274;7.796;2023-12-22T10:46:31;12.27;;;2.75;;
7359;SDS011;3720;48.274;7.796;2023-12-22T10:49:07;8.48;;;2.70;;
7359;SDS011;3720;48.274;7.796;2023-12-22T10:51:39;9.63;;;2.40;;
7359;SDS011;3720;48.274;7.796;2023-12-22T10:54:12;12.50;;;2.67;;
7359;SDS011;3720;48.274;7.796;2023-12-22T10:56:44;11.63;;;2.38;;
7359;SDS011;3720;48.274;7.796;2023-12-22T10:59:16;14.93;;;2.72;;
7359;SDS011;3720;48.274;7.796;2023-12-22T11:01:51;10.23;;;2.55;;
7359;SDS011;3720;48.274;7.796;2023-12-22T11:04:25;12.80;;;2.47;;
7359;SDS011;3720;48.274;7.796;2023-12-22T11:07:03;10.18;;;2.67;;
7359;SDS011;3720;48.274;7.796;2023-12-22T11:09:35;13.00;;;2.20;;
7359;SDS011;3720;48.274;7.796;2023-12-22T11:12:08;10.75;;;2.25;;
7359;SDS011;3720;48.274;7.796;2023-12-22T11:14:41;12.27;;;2.30;;
7359;SDS011;3720;48.274;7.796;2023-12-22T11:17:16;11.13;;;2.25;;
7359;SDS011;3720;48.274;7.796;2023-12-22T11:19:50;9.40;;;1.85;;
7359;SDS011;3720;48.274;7.796;2023-12-22T11:22:25;7.72;;;1.80;;
7359;SDS011;3720;48.274;7.796;2023-12-22T11:24:57;8.18;;;1.80;;
7359;SDS011;3720;48.274;7.796;2023-12-22T11:27:31;7.00;;;1.80;;
7359;SDS011;3720;48.274;7.796;2023-12-22T11:30:05;9.07;;;2.10;;
7359;SDS011;3720;48.274;7.796;2023-12-22T11:32:40;7.38;;;1.60;;
7359;SDS011;3720;48.274;7.796;2023-12-22T11:35:13;7.78;;;1.70;;
7359;SDS011;3720;48.274;7.796;2023-12-22T11:37:47;6.18;;;1.65;;
7359;SDS011;3720;48.274;7.796;2023-12-22T11:40:20;4.82;;;1.70;;
7359;SDS011;3720;48.274;7.796;2023-12-22T11:42:52;4.00;;;1.50;;
7359;SDS011;3720;48.274;7.796;2023-12-22T11:45:24;6.72;;;1.42;;
7359;SDS011;3720;48.274;7.796;2023-12-22T11:47:58;5.60;;;1.50;;
7359;SDS011;3720;48.274;7.796;2023-12-22T11:50:37;4.55;;;1.25;;
7359;SDS011;3720;48.274;7.796;2023-12-22T11:53:19;3.83;;;1.30;;
7359;SDS011;3720;48.274;7.796;2023-12-22T11:56:01;4.10;;;1.08;;
7359;SDS011;3720;48.274;7.796;2023-12-22T11:58:38;3.80;;;1.10;;
7359;SDS011;3720;48.274;7.796;2023-12-22T12:01:11;3.25;;;0.88;;
7359;SDS011;3720;48.274;7.796;2023-12-22T12:03:49;2.78;;;1.05;;
7359;SDS011;3720;48.274;7.796;2023-12-22T12:06:25;2.22;;;0.70;;
7359;SDS011;3720;48.274;7.796;2023-12-22T12:09:04;1.75;;;0.75;;
7359;SDS011;3720;48.274;7.796;2023-12-22T12:14:41;1.75;;;0.80;;
7359;SDS011;3720;48.274;7.796;2023-12-22T12:17:15;3.90;;;0.90;;
7359;SDS011;3720;48.274;7.796;2023-12-22T12:19:51;3.00;;;0.90;;
7359;SDS011;3720;48.274;7.796;2023-12-22T12:22:23;3.45;;;0.90;;
7359;SDS011;3720;48.274;7.796;2023-12-22T12:24:56;2.42;;;0.75;;
7359;SDS011;3720;48.274;7.796;2023-12-22T12:27:28;1.90;;;0.85;;
7359;SDS011;3720;48.274;7.796;2023-12-22T12:30:03;3.17;;;0.95;;
7359;SDS011;3720;48.274;7.796;2023-12-22T12:32:40;3.35;;;1.13;;
7359;SDS011;3720;48.274;7.796;2023-12-22T12:35:15;3.75;;;1.10;;
7359;SDS011;3720;48.274;7.796;2023-12-22T12:37:50;2.42;;;1.00;;
7359;SDS011;3720;48.274;7.796;2023-12-22T12:40:23;4.47;;;1.00;;
7359;SDS011;3720;48.274;7.796;2023-12-22T12:42:55;2.70;;;0.80;;
7359;SDS011;3720;48.274;7.796;2023-12-22T12:45:27;2.38;;;0.95;;
7359;SDS011;3720;48.274;7.796;2023-12-22T12:48:00;2.35;;;1.02;;
7359;SDS011;3720;48.274;7.796;2023-12-22T12:50:34;2.15;;;0.60;;
7359;SDS011;3720;48.274;7.796;2023-12-22T12:53:06;5.22;;;1.02;;
7359;SDS011;3720;48.274;7.796;2023-12-22T12:55:38;4.97;;;0.82;;
7359;SDS011;3720;48.274;7.796;2023-12-22T12:58:10;2.90;;;0.90;;
7359;SDS011;3720;48.274;7.796;2023-12-22T13:00:42;1.70;;;0.80;;
7359;SDS011;3720;48.274;7.796;2023-12-22T13:03:13;3.03;;;0.80;;
7359;SDS011;3720;48.274;7.796;2023-12-22T13:05:47;1.90;;;0.80;;
7359;SDS011;3720;48.274;7.796;2023-12-22T13:08:19;2.45;;;0.82;;
7359;SDS011;3720;48.274;7.796;2023-12-22T13:10:59;2.67;;;0.70;;
7359;SDS011;3720;48.274;7.796;2023-12-22T13:13:39;2.58;;;0.60;;
7359;SDS011;3720;48.274;7.796;2023-12-22T13:16:12;2.88;;;0.75;;
7359;SDS011;3720;48.274;7.796;2023-12-22T13:18:44;1.15;;;0.70;;
7359;SDS011;3720;48.274;7.796;2023-12-22T13:21:17;1.45;;;0.70;;
7359;SDS011;3720;48.274;7.796;2023-12-22T13:26:39;0.90;;;0.70;;
7359;SDS011;3720;48.274;7.796;2023-12-22T13:29:12;2.38;;;0.50;;
7359;SDS011;3720;48.274;7.796;2023-12-22T13:31:45;1.85;;;0.63;;
7359;SDS011;3720;48.274;7.796;2023-12-22T13:34:16;2.13;;;0.70;;
7359;SDS011;3720;48.274;7.796;2023-12-22T13:36:50;1.45;;;0.70;;
7359;SDS011;3720;48.274;7.796;2023-12-22T13:39:22;2.00;;;0.77;;
7359;SDS011;3720;48.274;7.796;2023-12-22T13:41:59;1.60;;;0.60;;
7359;SDS011;3720;48.274;7.796;2023-12-22T13:44:31;2.50;;;0.70;;
7359;SDS011;3720;48.274;7.796;2023-12-22T13:47:03;1.95;;;0.80;;
7359;SDS011;3720;48.274;7.796;2023-12-22T13:49:35;2.33;;;0.75;;
7359;SDS011;3720;48.274;7.796;2023-12-22T13:52:09;1.83;;;0.80;;
7359;SDS011;3720;48.274;7.796;2023-12-22T13:54:56;0.88;;;0.63;;
7359;SDS011;3720;48.274;7.796;2023-12-22T13:57:31;1.55;;;0.80;;
7359;SDS011;3720;48.274;7.796;2023-12-22T14:00:06;1.95;;;0.80;;
7359;SDS011;3720;48.274;7.796;2023-12-22T14:02:56;0.70;;;0.60;;
7359;SDS011;3720;48.274;7.796;2023-12-22T14:05:28;3.63;;;0.80;;
7359;SDS011;3720;48.274;7.796;2023-12-22T14:08:02;1.17;;;0.60;;
7359;SDS011;3720;48.274;7.796;2023-12-22T14:10:35;3.63;;;0.65;;
7359;SDS011;3720;48.274;7.796;2023-12-22T14:13:07;0.60;;;0.50;;
7359;SDS011;3720;48.274;7.796;2023-12-22T14:15:39;1.73;;;0.70;;
7359;SDS011;3720;48.274;7.796;2023-12-22T14:18:12;0.95;;;0.60;;
7359;SDS011;3720;48.274;7.796;2023-12-22T14:20:44;0.63;;;0.60;;
7359;SDS011;3720;48.274;7.796;2023-12-22T14:23:17;1.25;;;0.70;;
7359;SDS011;3720;48.274;7.796;2023-12-22T14:25:49;1.52;;;0.60;;
7359;SDS011;3720;48.274;7.796;2023-12-22T14:28:21;0.52;;;0.52;;
7359;SDS011;3720;48.274;7.796;2023-12-22T14:30:53;0.60;;;0.60;;
7359;SDS011;3720;48.274;7.796;2023-12-22T14:33:25;0.68;;;0.50;;
7359;SDS011;3720;48.274;7.796;2023-12-22T14:35:57;1.25;;;0.50;;
7359;SDS011;3720;48.274;7.796;2023-12-22T14:38:30;1.58;;;0.47;;
7359;SDS011;3720;48.274;7.796;2023-12-22T14:41:02;2.00;;;0.50;;
7359;SDS011;3720;48.274;7.796;2023-12-22T14:43:34;1.20;;;0.45;;
7359;SDS011;3720;48.274;7.796;2023-12-22T14:46:05;1.73;;;0.52;;
7359;SDS011;3720;48.274;7.796;2023-12-22T14:48:37;1.45;;;0.70;;
7359;SDS011;3720;48.274;7.796;2023-12-22T14:51:09;2.00;;;0.60;;
7359;SDS011;3720;48.274;7.796;2023-12-22T14:53:42;1.75;;;0.60;;
7359;SDS011;3720;48.274;7.796;2023-12-22T14:56:14;1.90;;;0.60;;
7359;SDS011;3720;48.274;7.796;2023-12-22T14:58:46;2.05;;;0.60;;
7359;SDS011;3720;48.274;7.796;2023-12-22T15:01:18;1.77;;;0.60;;
7359;SDS011;3720;48.274;7.796;2023-12-22T15:03:49;2.15;;;0.63;;
7359;SDS011;3720;48.274;7.796;2023-12-22T15:06:21;2.35;;;0.65;;
7359;SDS011;3720;48.274;7.796;2023-12-22T15:08:55;0.93;;;0.60;;
7359;SDS011;3720;48.274;7.796;2023-12-22T15:11:26;1.48;;;0.60;;
7359;SDS011;3720;48.274;7.796;2023-12-22T15:13:58;1.08;;;0.60;;
7359;SDS011;3720;48.274;7.796;2023-12-22T15:16:31;1.15;;;0.60;;
7359;SDS011;3720;48.274;7.796;2023-12-22T15:19:02;2.83;;;0.63;;
7359;SDS011;3720;48.274;7.796;2023-12-22T15:21:34;1.50;;;0.80;;
7359;SDS011;3720;48.274;7.796;2023-12-22T15:24:08;0.73;;;0.70;;
7359;SDS011;3720;48.274;7.796;2023-12-22T15:26:41;2.22;;;0.90;;
7359;SDS011;3720;48.274;7.796;2023-12-22T15:29:13;2.22;;;0.90;;
7359;SDS011;3720;48.274;7.796;2023-12-22T15:31:46;1.48;;;0.75;;
7359;SDS011;3720;48.274;7.796;2023-12-22T15:34:18;1.25;;;0.68;;
7359;SDS011;3720;48.274;7.796;2023-12-22T15:36:50;0.98;;;0.65;;
7359;SDS011;3720;48.274;7.796;2023-12-22T15:39:24;1.20;;;0.50;;
7359;SDS011;3720;48.274;7.796;2023-12-22T15:41:56;0.90;;;0.50;;
7359;SDS011;3720;48.274;7.796;2023-12-22T15:44:27;1.75;;;0.70;;
7359;SDS011;3720;48.274;7.796;2023-12-22T15:47:00;0.88;;;0.60;;
7359;SDS011;3720;48.274;7.796;2023-12-22T15:49:32;0.80;;;0.60;;
7359;SDS011;3720;48.274;7.796;2023-12-22T15:52:03;1.00;;;0.55;;